Corrigan, Texas
Current Conditions -  °F | °C
As of 12:53 PM on Friday 28 Nov 2014 (Local Time) from KLFK Reporting Station
Clear Clear  
Wind Chill: 68°   Ceiling: Unl
Heat Index: 68°   Visibility: 10mi
Dew Point: 47°   Wind: 7mph
Humidity: 47%   Direction: NA
Pressure: 30.23"   Gusts: NA
Location:  31°N, 94.83°W
Report Text: KLFK 281853Z AUTO VRB06KT 10SM CLR 20/08 A3023 RMK AO2 SLP236 T02000083 $
Loading
Personal Weather Stations






























Interactive Weather Map New forecast layout! Learn more

10-Day Weather Forecast

Advertisements
Track Severe Weather on mobile